sensor_id;sensor_type;location;lat;lon;timestamp;pressure;altitude;pressure_sealevel;temperature;humidity
58243;BME280;50118;53.232;8.252;2023-02-04T00:01:38;102808.59;;;3.52;100.00
58243;BME280;50118;53.232;8.252;2023-02-04T00:04:04;102809.41;;;3.54;100.00
58243;BME280;50118;53.232;8.252;2023-02-04T00:06:29;102816.50;;;3.52;100.00
58243;BME280;50118;53.232;8.252;2023-02-04T00:08:54;102821.91;;;3.47;100.00
58243;BME280;50118;53.232;8.252;2023-02-04T00:11:20;102822.88;;;3.45;100.00
58243;BME280;50118;53.232;8.252;2023-02-04T00:13:45;102819.63;;;3.36;100.00
58243;BME280;50118;53.232;8.252;2023-02-04T00:16:11;102817.31;;;3.26;100.00
58243;BME280;50118;53.232;8.252;2023-02-04T00:18:36;102808.88;;;3.14;100.00
58243;BME280;50118;53.232;8.252;2023-02-04T00:21:02;102809.06;;;3.08;100.00
58243;BME280;50118;53.232;8.252;2023-02-04T00:23:27;102817.97;;;3.04;100.00
58243;BME280;50118;53.232;8.252;2023-02-04T00:25:52;102826.09;;;2.96;100.00
58243;BME280;50118;53.232;8.252;2023-02-04T00:28:18;102831.69;;;2.84;100.00
58243;BME280;50118;53.232;8.252;2023-02-04T00:30:43;102830.88;;;2.82;100.00
58243;BME280;50118;53.232;8.252;2023-02-04T00:33:09;102837.16;;;2.78;100.00
58243;BME280;50118;53.232;8.252;2023-02-04T00:35:35;102833.94;;;2.67;100.00
58243;BME280;50118;53.232;8.252;2023-02-04T00:38:02;102830.66;;;2.58;100.00
58243;BME280;50118;53.232;8.252;2023-02-04T00:40:28;102830.94;;;2.49;100.00
58243;BME280;50118;53.232;8.252;2023-02-04T00:42:53;102839.75;;;2.47;100.00
58243;BME280;50118;53.232;8.252;2023-02-04T00:45:18;102848.69;;;2.41;100.00
58243;BME280;50118;53.232;8.252;2023-02-04T00:47:44;102841.69;;;2.40;100.00
58243;BME280;50118;53.232;8.252;2023-02-04T00:50:09;102848.81;;;2.35;100.00
58243;BME280;50118;53.232;8.252;2023-02-04T00:52:35;102843.91;;;2.22;100.00
58243;BME280;50118;53.232;8.252;2023-02-04T00:55:00;102852.69;;;2.21;100.00
58243;BME280;50118;53.232;8.252;2023-02-04T00:57:25;102861.59;;;2.16;100.00
58243;BME280;50118;53.232;8.252;2023-02-04T00:59:51;102875.69;;;2.13;100.00
58243;BME280;50118;53.232;8.252;2023-02-04T01:02:16;102877.50;;;2.11;100.00
58243;BME280;50118;53.232;8.252;2023-02-04T01:04:42;102886.41;;;2.04;100.00
58243;BME280;50118;53.232;8.252;2023-02-04T01:07:07;102900.41;;;2.06;100.00
58243;BME280;50118;53.232;8.252;2023-02-04T01:09:33;102900.44;;;2.04;100.00
58243;BME280;50118;53.232;8.252;2023-02-04T01:11:58;102903.13;;;2.03;100.00
58243;BME280;50118;53.232;8.252;2023-02-04T01:14:23;102905.81;;;2.00;100.00
58243;BME280;50118;53.232;8.252;2023-02-04T01:16:49;102912.88;;;1.98;100.00
58243;BME280;50118;53.232;8.252;2023-02-04T01:19:14;102922.38;;;2.03;100.00
58243;BME280;50118;53.232;8.252;2023-02-04T01:21:39;102936.38;;;2.04;100.00
58243;BME280;50118;53.232;8.252;2023-02-04T01:24:05;102924.97;;;2.05;100.00
58243;BME280;50118;53.232;8.252;2023-02-04T01:26:30;102935.47;;;2.05;100.00
58243;BME280;50118;53.232;8.252;2023-02-04T01:28:56;102940.75;;;2.05;100.00
58243;BME280;50118;53.232;8.252;2023-02-04T01:31:21;102954.72;;;2.07;100.00
58243;BME280;50118;53.232;8.252;2023-02-04T01:33:47;102954.63;;;2.10;100.00
58243;BME280;50118;53.232;8.252;2023-02-04T01:36:12;102954.72;;;2.07;100.00
58243;BME280;50118;53.232;8.252;2023-02-04T01:38:37;102956.47;;;2.07;100.00
58243;BME280;50118;53.232;8.252;2023-02-04T01:41:03;102967.94;;;2.02;100.00
58243;BME280;50118;53.232;8.252;2023-02-04T01:43:30;102988.19;;;1.99;100.00
58243;BME280;50118;53.232;8.252;2023-02-04T01:45:56;102984.00;;;1.90;100.00
58243;BME280;50118;53.232;8.252;2023-02-04T01:48:22;102992.88;;;1.86;100.00
58243;BME280;50118;53.232;8.252;2023-02-04T01:50:49;103003.56;;;1.77;100.00
58243;BME280;50118;53.232;8.252;2023-02-04T01:53:21;103002.75;;;1.73;100.00
58243;BME280;50118;53.232;8.252;2023-02-04T01:55:48;103001.91;;;1.73;100.00
58243;BME280;50118;53.232;8.252;2023-02-04T01:58:14;103020.47;;;1.63;100.00
58243;BME280;50118;53.232;8.252;2023-02-04T02:00:41;103018.69;;;1.67;100.00
58243;BME280;50118;53.232;8.252;2023-02-04T02:03:06;103027.66;;;1.57;100.00
58243;BME280;50118;53.232;8.252;2023-02-04T02:05:44;103027.75;;;1.51;100.00
58243;BME280;50118;53.232;8.252;2023-02-04T02:08:11;103038.38;;;1.44;100.00
58243;BME280;50118;53.232;8.252;2023-02-04T02:10:38;103037.56;;;1.41;100.00
58243;BME280;50118;53.232;8.252;2023-02-04T02:13:06;103041.22;;;1.34;100.00
58243;BME280;50118;53.232;8.252;2023-02-04T02:15:33;103053.63;;;1.25;100.00
58243;BME280;50118;53.232;8.252;2023-02-04T02:17:58;103058.09;;;1.19;100.00
58243;BME280;50118;53.232;8.252;2023-02-04T02:20:25;103062.63;;;1.10;100.00
58243;BME280;50118;53.232;8.252;2023-02-04T02:25:34;103070.88;;;0.89;100.00
58243;BME280;50118;53.232;8.252;2023-02-04T02:28:00;103064.94;;;0.78;100.00
58243;BME280;50118;53.232;8.252;2023-02-04T02:30:27;103076.44;;;0.69;100.00
58243;BME280;50118;53.232;8.252;2023-02-04T02:32:54;103084.31;;;0.69;100.00
58243;BME280;50118;53.232;8.252;2023-02-04T02:35:19;103088.78;;;0.62;100.00
58243;BME280;50118;53.232;8.252;2023-02-04T02:37:45;103067.88;;;0.56;100.00
58243;BME280;50118;53.232;8.252;2023-02-04T02:40:11;103072.41;;;0.48;100.00
58243;BME280;50118;53.232;8.252;2023-02-04T02:42:37;103078.69;;;0.38;100.00
58243;BME280;50118;53.232;8.252;2023-02-04T02:45:07;103077.00;;;0.30;100.00
58243;BME280;50118;53.232;8.252;2023-02-04T02:47:35;103075.38;;;0.23;100.00
58243;BME280;50118;53.232;8.252;2023-02-04T02:50:01;103077.19;;;0.18;100.00
58243;BME280;50118;53.232;8.252;2023-02-04T02:52:26;103078.97;;;0.16;100.00
58243;BME280;50118;53.232;8.252;2023-02-04T02:54:51;103074.59;;;0.15;100.00
58243;BME280;50118;53.232;8.252;2023-02-04T02:57:20;103079.00;;;0.13;100.00
58243;BME280;50118;53.232;8.252;2023-02-04T02:59:46;103078.19;;;0.08;100.00
58243;BME280;50118;53.232;8.252;2023-02-04T03:02:15;103082.66;;;-0.01;100.00
58243;BME280;50118;53.232;8.252;2023-02-04T03:04:49;103075.75;;;-0.05;100.00
58243;BME280;50118;53.232;8.252;2023-02-04T03:07:16;103081.84;;;-0.06;100.00
58243;BME280;50118;53.232;8.252;2023-02-04T03:09:43;103087.94;;;-0.04;100.00
58243;BME280;50118;53.232;8.252;2023-02-04T03:12:09;103092.28;;;0.01;100.00
58243;BME280;50118;53.232;8.252;2023-02-04T03:14:35;103106.16;;;0.09;100.00
58243;BME280;50118;53.232;8.252;2023-02-04T03:17:03;103112.25;;;0.08;100.00
58243;BME280;50118;53.232;8.252;2023-02-04T03:19:30;103111.44;;;0.03;100.00
58243;BME280;50118;53.232;8.252;2023-02-04T03:21:56;103109.81;;;-0.05;100.00
58243;BME280;50118;53.232;8.252;2023-02-04T03:24:22;103113.31;;;-0.09;100.00
58243;BME280;50118;53.232;8.252;2023-02-04T03:26:48;103127.31;;;-0.10;100.00
58243;BME280;50118;53.232;8.252;2023-02-04T03:29:14;103131.72;;;-0.12;100.00
58243;BME280;50118;53.232;8.252;2023-02-04T03:31:39;103150.09;;;-0.13;100.00
58243;BME280;50118;53.232;8.252;2023-02-04T03:34:05;103159.66;;;-0.11;100.00
58243;BME280;50118;53.232;8.252;2023-02-04T03:36:31;103163.19;;;-0.15;100.00
58243;BME280;50118;53.232;8.252;2023-02-04T03:38:57;103159.72;;;-0.17;100.00
58243;BME280;50118;53.232;8.252;2023-02-04T03:41:22;103156.22;;;-0.19;100.00
58243;BME280;50118;53.232;8.252;2023-02-04T03:43:48;103166.72;;;-0.19;100.00
58243;BME280;50118;53.232;8.252;2023-02-04T03:46:13;103176.38;;;-0.26;100.00
58243;BME280;50118;53.232;8.252;2023-02-04T03:48:38;103172.09;;;-0.34;100.00
58243;BME280;50118;53.232;8.252;2023-02-04T03:51:04;103170.41;;;-0.39;100.00
58243;BME280;50118;53.232;8.252;2023-02-04T03:53:29;103173.09;;;-0.46;100.00
58243;BME280;50118;53.232;8.252;2023-02-04T03:55:55;103176.63;;;-0.50;100.00
58243;BME280;50118;53.232;8.252;2023-02-04T03:58:20;103187.13;;;-0.52;100.00
58243;BME280;50118;53.232;8.252;2023-02-04T04:00:46;103195.00;;;-0.55;100.00
58243;BME280;50118;53.232;8.252;2023-02-04T04:03:11;103203.75;;;-0.56;100.00
58243;BME280;50118;53.232;8.252;2023-02-04T04:05:37;103199.38;;;-0.55;100.00
58243;BME280;50118;53.232;8.252;2023-02-04T04:08:03;103203.69;;;-0.53;100.00
58243;BME280;50118;53.232;8.252;2023-02-04T04:10:28;103200.22;;;-0.52;100.00
58243;BME280;50118;53.232;8.252;2023-02-04T04:12:53;103203.66;;;-0.48;100.00
58243;BME280;50118;53.232;8.252;2023-02-04T04:15:19;103212.38;;;-0.48;100.00
58243;BME280;50118;53.232;8.252;2023-02-04T04:17:45;103215.00;;;-0.46;100.00
58243;BME280;50118;53.232;8.252;2023-02-04T04:20:10;103223.69;;;-0.43;100.00
58243;BME280;50118;53.232;8.252;2023-02-04T04:22:36;103224.56;;;-0.41;100.00
58243;BME280;50118;53.232;8.252;2023-02-04T04:25:01;103221.94;;;-0.41;100.00
58243;BME280;50118;53.232;8.252;2023-02-04T04:27:26;103233.19;;;-0.32;100.00
58243;BME280;50118;53.232;8.252;2023-02-04T04:29:53;103236.75;;;-0.36;100.00
58243;BME280;50118;53.232;8.252;2023-02-04T04:32:19;103238.50;;;-0.39;100.00
58243;BME280;50118;53.232;8.252;2023-02-04T04:34:44;103247.22;;;-0.40;100.00
58243;BME280;50118;53.232;8.252;2023-02-04T04:37:10;103245.50;;;-0.41;100.00
58243;BME280;50118;53.232;8.252;2023-02-04T04:39:36;103248.13;;;-0.39;100.00
58243;BME280;50118;53.232;8.252;2023-02-04T04:42:01;103252.44;;;-0.36;100.00
58243;BME280;50118;53.232;8.252;2023-02-04T04:44:27;103269.03;;;-0.38;100.00
58243;BME280;50118;53.232;8.252;2023-02-04T04:46:52;103269.03;;;-0.38;100.00
58243;BME280;50118;53.232;8.252;2023-02-04T04:49:17;103267.31;;;-0.39;100.00
58243;BME280;50118;53.232;8.252;2023-02-04T04:51:43;103264.69;;;-0.39;100.00
58243;BME280;50118;53.232;8.252;2023-02-04T04:54:08;103275.19;;;-0.43;100.00
58243;BME280;50118;53.232;8.252;2023-02-04T04:56:33;103278.69;;;-0.43;100.00
58243;BME280;50118;53.232;8.252;2023-02-04T04:58:59;103271.72;;;-0.44;100.00
58243;BME280;50118;53.232;8.252;2023-02-04T05:01:24;103273.44;;;-0.43;100.00
58243;BME280;50118;53.232;8.252;2023-02-04T05:03:50;103273.44;;;-0.40;100.00
58243;BME280;50118;53.232;8.252;2023-02-04T05:06:15;103276.88;;;-0.38;100.00
58243;BME280;50118;53.232;8.252;2023-02-04T05:08:41;103287.38;;;-0.38;100.00
58243;BME280;50118;53.232;8.252;2023-02-04T05:11:06;103288.25;;;-0.35;100.00
58243;BME280;50118;53.232;8.252;2023-02-04T05:13:32;103289.97;;;-0.34;100.00
58243;BME280;50118;53.232;8.252;2023-02-04T05:15:57;103282.13;;;-0.34;100.00
58243;BME280;50118;53.232;8.252;2023-02-04T05:18:23;103285.63;;;-0.35;100.00
58243;BME280;50118;53.232;8.252;2023-02-04T05:20:48;103289.97;;;-0.38;100.00
58243;BME280;50118;53.232;8.252;2023-02-04T05:23:14;103305.75;;;-0.39;100.00
58243;BME280;50118;53.232;8.252;2023-02-04T05:25:41;103294.44;;;-0.46;100.00
58243;BME280;50118;53.232;8.252;2023-02-04T05:28:06;103304.91;;;-0.46;100.00
58243;BME280;50118;53.232;8.252;2023-02-04T05:30:32;103310.19;;;-0.52;100.00
58243;BME280;50118;53.232;8.252;2023-02-04T05:32:57;103317.19;;;-0.54;100.00
58243;BME280;50118;53.232;8.252;2023-02-04T05:35:23;103321.53;;;-0.53;100.00
58243;BME280;50118;53.232;8.252;2023-02-04T05:37:48;103318.03;;;-0.53;100.00
58243;BME280;50118;53.232;8.252;2023-02-04T05:40:13;103315.41;;;-0.52;100.00
58243;BME280;50118;53.232;8.252;2023-02-04T05:42:39;103313.66;;;-0.53;100.00
58243;BME280;50118;53.232;8.252;2023-02-04T05:45:06;103317.19;;;-0.52;100.00
58243;BME280;50118;53.232;8.252;2023-02-04T05:47:33;103318.88;;;-0.50;100.00
58243;BME280;50118;53.232;8.252;2023-02-04T05:49:58;103321.50;;;-0.48;100.00
58243;BME280;50118;53.232;8.252;2023-02-04T05:52:24;103319.75;;;-0.48;100.00
58243;BME280;50118;53.232;8.252;2023-02-04T05:54:49;103341.56;;;-0.46;100.00
58243;BME280;50118;53.232;8.252;2023-02-04T05:57:14;103341.56;;;-0.46;100.00
58243;BME280;50118;53.232;8.252;2023-02-04T05:59:40;103352.06;;;-0.46;100.00
58243;BME280;50118;53.232;8.252;2023-02-04T06:02:05;103358.16;;;-0.45;100.00
58243;BME280;50118;53.232;8.252;2023-02-04T06:04:31;103359.00;;;-0.45;100.00
58243;BME280;50118;53.232;8.252;2023-02-04T06:06:56;103364.25;;;-0.45;100.00
58243;BME280;50118;53.232;8.252;2023-02-04T06:09:21;103355.53;;;-0.47;100.00
58243;BME280;50118;53.232;8.252;2023-02-04T06:11:47;103359.06;;;-0.49;100.00
58243;BME280;50118;53.232;8.252;2023-02-04T06:14:12;103373.00;;;-0.49;100.00
58243;BME280;50118;53.232;8.252;2023-02-04T06:16:38;103378.25;;;-0.46;100.00
58243;BME280;50118;53.232;8.252;2023-02-04T06:19:03;103379.97;;;-0.45;100.00
58243;BME280;50118;53.232;8.252;2023-02-04T06:21:29;103374.72;;;-0.48;100.00
58243;BME280;50118;53.232;8.252;2023-02-04T06:23:54;103380.00;;;-0.49;100.00
58243;BME280;50118;53.232;8.252;2023-02-04T06:26:20;103388.75;;;-0.52;100.00
58243;BME280;50118;53.232;8.252;2023-02-04T06:28:45;103397.53;;;-0.62;100.00
58243;BME280;50118;53.232;8.252;2023-02-04T06:31:11;103399.28;;;-0.67;100.00
58243;BME280;50118;53.232;8.252;2023-02-04T06:33:36;103401.91;;;-0.72;100.00
58243;BME280;50118;53.232;8.252;2023-02-04T06:36:03;103413.31;;;-0.78;100.00
58243;BME280;50118;53.232;8.252;2023-02-04T06:38:28;103414.19;;;-0.83;100.00
58243;BME280;50118;53.232;8.252;2023-02-04T06:40:54;103420.31;;;-0.86;100.00
58243;BME280;50118;53.232;8.252;2023-02-04T06:43:20;103420.31;;;-0.89;100.00
58243;BME280;50118;53.232;8.252;2023-02-04T06:45:45;103423.81;;;-0.93;100.00
58243;BME280;50118;53.232;8.252;2023-02-04T06:48:11;103422.06;;;-0.94;100.00
58243;BME280;50118;53.232;8.252;2023-02-04T06:50:36;103415.13;;;-1.01;100.00
58243;BME280;50118;53.232;8.252;2023-02-04T06:53:02;103415.13;;;-1.04;100.00
58243;BME280;50118;53.232;8.252;2023-02-04T06:55:27;103430.81;;;-1.01;100.00
58243;BME280;50118;53.232;8.252;2023-02-04T06:57:53;103433.44;;;-1.03;100.00
58243;BME280;50118;53.232;8.252;2023-02-04T07:00:18;103433.44;;;-1.06;100.00
58243;BME280;50118;53.232;8.252;2023-02-04T07:02:44;103434.34;;;-1.05;100.00
58243;BME280;50118;53.232;8.252;2023-02-04T07:05:10;103439.53;;;-1.02;100.00
58243;BME280;50118;53.232;8.252;2023-02-04T07:07:36;103442.19;;;-1.04;100.00
58243;BME280;50118;53.232;8.252;2023-02-04T07:10:02;103454.38;;;-1.04;100.00
58243;BME280;50118;53.232;8.252;2023-02-04T07:12:27;103459.59;;;-1.03;100.00
58243;BME280;50118;53.232;8.252;2023-02-04T07:14:53;103472.69;;;-1.01;100.00
58243;BME280;50118;53.232;8.252;2023-02-04T07:17:18;103468.31;;;-1.01;100.00
58243;BME280;50118;53.232;8.252;2023-02-04T07:19:43;103472.69;;;-1.01;100.00
58243;BME280;50118;53.232;8.252;2023-02-04T07:22:09;103480.53;;;-1.03;100.00
58243;BME280;50118;53.232;8.252;2023-02-04T07:24:34;103484.91;;;-1.00;100.00
58243;BME280;50118;53.232;8.252;2023-02-04T07:27:00;103484.91;;;-1.00;100.00
58243;BME280;50118;53.232;8.252;2023-02-04T07:29:25;103493.59;;;-0.92;100.00
58243;BME280;50118;53.232;8.252;2023-02-04T07:31:50;103498.81;;;-0.86;100.00
58243;BME280;50118;53.232;8.252;2023-02-04T07:34:17;103496.19;;;-0.80;100.00
58243;BME280;50118;53.232;8.252;2023-02-04T07:36:43;103493.53;;;-0.73;100.00
58243;BME280;50118;53.232;8.252;2023-02-04T07:39:08;103494.38;;;-0.64;100.00
58243;BME280;50118;53.232;8.252;2023-02-04T07:41:35;103497.84;;;-0.55;100.00
58243;BME280;50118;53.232;8.252;2023-02-04T07:44:00;103495.25;;;-0.57;100.00
58243;BME280;50118;53.232;8.252;2023-02-04T07:46:26;103496.09;;;-0.50;100.00
58243;BME280;50118;53.232;8.252;2023-02-04T07:48:52;103491.72;;;-0.47;100.00
58243;BME280;50118;53.232;8.252;2023-02-04T07:51:17;103491.72;;;-0.47;100.00
58243;BME280;50118;53.232;8.252;2023-02-04T07:53:42;103498.66;;;-0.36;100.00
58243;BME280;50118;53.232;8.252;2023-02-04T07:56:08;103499.50;;;-0.38;100.00
58243;BME280;50118;53.232;8.252;2023-02-04T07:58:33;103509.09;;;-0.27;100.00
58243;BME280;50118;53.232;8.252;2023-02-04T08:00:59;103512.53;;;-0.16;100.00
58243;BME280;50118;53.232;8.252;2023-02-04T08:03:25;103516.84;;;-0.07;100.00
58243;BME280;50118;53.232;8.252;2023-02-04T08:05:51;103523.81;;;-0.05;100.00
58243;BME280;50118;53.232;8.252;2023-02-04T08:08:16;103525.53;;;0.04;100.00
58243;BME280;50118;53.232;8.252;2023-02-04T08:10:41;103528.06;;;0.18;100.00
58243;BME280;50118;53.232;8.252;2023-02-04T08:13:07;103527.13;;;0.25;100.00
58243;BME280;50118;53.232;8.252;2023-02-04T08:15:32;103532.28;;;0.41;100.00
58243;BME280;50118;53.232;8.252;2023-02-04T08:17:58;103530.53;;;0.40;100.00
58243;BME280;50118;53.232;8.252;2023-02-04T08:20:23;103524.44;;;0.38;100.00
58243;BME280;50118;53.232;8.252;2023-02-04T08:22:49;103535.78;;;0.43;100.00
58243;BME280;50118;53.232;8.252;2023-02-04T08:25:15;103546.19;;;0.52;100.00
58243;BME280;50118;53.232;8.252;2023-02-04T08:27:40;103554.75;;;0.76;100.00
58243;BME280;50118;53.232;8.252;2023-02-04T08:30:08;103554.53;;;0.99;100.00
58243;BME280;50118;53.232;8.252;2023-02-04T08:32:34;103559.50;;;1.29;100.00
58243;BME280;50118;53.232;8.252;2023-02-04T08:34:59;103552.91;;;1.71;100.00
58243;BME280;50118;53.232;8.252;2023-02-04T08:37:25;103559.59;;;1.98;100.00
58243;BME280;50118;53.232;8.252;2023-02-04T08:39:50;103564.50;;;2.22;100.00
58243;BME280;50118;53.232;8.252;2023-02-04T08:42:16;103567.03;;;2.30;100.00
58243;BME280;50118;53.232;8.252;2023-02-04T08:44:42;103578.03;;;2.55;100.00
58243;BME280;50118;53.232;8.252;2023-02-04T08:47:07;103577.75;;;2.74;100.00
58243;BME280;50118;53.232;8.252;2023-02-04T08:49:34;103579.94;;;3.02;100.00
58243;BME280;50118;53.232;8.252;2023-02-04T08:51:59;103588.91;;;3.40;100.00
58243;BME280;50118;53.232;8.252;2023-02-04T08:54:27;103595.25;;;3.29;100.00
58243;BME280;50118;53.232;8.252;2023-02-04T08:56:52;103591.09;;;3.63;100.00
58243;BME280;50118;53.232;8.252;2023-02-04T08:59:17;103590.28;;;3.59;100.00
58243;BME280;50118;53.232;8.252;2023-02-04T09:01:43;103601.53;;;3.67;100.00
58243;BME280;50118;53.232;8.252;2023-02-04T09:04:13;103597.81;;;3.32;100.00
58243;BME280;50118;53.232;8.252;2023-02-04T09:06:38;103584.09;;;3.62;100.00
58243;BME280;50118;53.232;8.252;2023-02-04T09:09:04;103597.19;;;3.18;100.00
58243;BME280;50118;53.232;8.252;2023-02-04T09:11:29;103592.97;;;3.58;100.00
58243;BME280;50118;53.232;8.252;2023-02-04T09:13:54;103605.63;;;3.37;100.00
58243;BME280;50118;53.232;8.252;2023-02-04T09:16:21;103603.41;;;3.62;100.00
58243;BME280;50118;53.232;8.252;2023-02-04T09:18:47;103590.41;;;3.53;100.00
58243;BME280;50118;53.232;8.252;2023-02-04T09:21:13;103601.66;;;3.63;100.00
58243;BME280;50118;53.232;8.252;2023-02-04T09:23:38;103606.75;;;3.70;100.00
58243;BME280;50118;53.232;8.252;2023-02-04T09:26:03;103604.28;;;3.63;100.00
58243;BME280;50118;53.232;8.252;2023-02-04T09:28:31;103613.00;;;3.66;100.00
58243;BME280;50118;53.232;8.252;2023-02-04T09:30:56;103603.63;;;3.50;100.00
58243;BME280;50118;53.232;8.252;2023-02-04T09:33:22;103617.09;;;3.34;100.00
58243;BME280;50118;53.232;8.252;2023-02-04T09:35:48;103606.22;;;3.53;100.00
58243;BME280;50118;53.232;8.252;2023-02-04T09:38:14;103615.81;;;3.55;100.00
58243;BME280;50118;53.232;8.252;2023-02-04T09:40:42;103621.69;;;3.71;100.00
58243;BME280;50118;53.232;8.252;2023-02-04T09:43:12;103626.09;;;3.69;100.00
58243;BME280;50118;53.232;8.252;2023-02-04T09:45:39;103627.91;;;3.19;100.00
58243;BME280;50118;53.232;8.252;2023-02-04T09:48:05;103643.41;;;3.38;100.00
58243;BME280;50118;53.232;8.252;2023-02-04T09:50:31;103628.47;;;3.36;100.00
58243;BME280;50118;53.232;8.252;2023-02-04T09:52:59;103634.31;;;3.54;100.00
58243;BME280;50118;53.232;8.252;2023-02-04T09:55:29;103637.63;;;3.65;100.00
58243;BME280;50118;53.232;8.252;2023-02-04T09:57:56;103643.44;;;3.34;100.00
58243;BME280;50118;53.232;8.252;2023-02-04T10:00:24;103647.91;;;3.78;100.00
58243;BME280;50118;53.232;8.252;2023-02-04T10:02:50;103654.38;;;4.06;100.00
58243;BME280;50118;53.232;8.252;2023-02-04T10:05:25;103656.63;;;4.25;100.00
58243;BME280;50118;53.232;8.252;2023-02-04T10:07:51;103653.59;;;4.43;100.00
58243;BME280;50118;53.232;8.252;2023-02-04T10:10:21;103652.81;;;4.40;97.65
58243;BME280;50118;53.232;8.252;2023-02-04T10:12:50;103663.00;;;4.57;98.65
58243;BME280;50118;53.232;8.252;2023-02-04T10:15:18;103660.06;;;4.69;96.01
58243;BME280;50118;53.232;8.252;2023-02-04T10:18:02;103665.28;;;4.72;93.54
58243;BME280;50118;53.232;8.252;2023-02-04T10:20:27;103657.75;;;4.93;95.99
58243;BME280;50118;53.232;8.252;2023-02-04T10:22:54;103655.31;;;4.83;95.66
58243;BME280;50118;53.232;8.252;2023-02-04T10:25:22;103661.59;;;4.79;95.78
58243;BME280;50118;53.232;8.252;2023-02-04T10:27:53;103648.97;;;4.92;95.27
58243;BME280;50118;53.232;8.252;2023-02-04T10:30:25;103662.09;;;4.95;95.15
58243;BME280;50118;53.232;8.252;2023-02-04T10:32:51;103657.88;;;4.86;91.73
58243;BME280;50118;53.232;8.252;2023-02-04T10:35:19;103658.81;;;4.85;89.31
58243;BME280;50118;53.232;8.252;2023-02-04T10:37:45;103665.13;;;4.78;89.44
58243;BME280;50118;53.232;8.252;2023-02-04T10:40:31;103655.16;;;4.91;90.51
58243;BME280;50118;53.232;8.252;2023-02-04T10:42:57;103650.59;;;4.98;90.80
58243;BME280;50118;53.232;8.252;2023-02-04T10:45:27;103666.81;;;4.82;89.70
58243;BME280;50118;53.232;8.252;2023-02-04T10:47:54;103655.06;;;4.57;91.01
58243;BME280;50118;53.232;8.252;2023-02-04T10:50:24;103656.19;;;4.46;90.82
58243;BME280;50118;53.232;8.252;2023-02-04T10:52:59;103645.88;;;4.34;91.81
58243;BME280;50118;53.232;8.252;2023-02-04T10:55:47;103645.78;;;4.39;91.41
58243;BME280;50118;53.232;8.252;2023-02-04T10:58:18;103651.50;;;4.58;91.54
58243;BME280;50118;53.232;8.252;2023-02-04T11:00:45;103650.41;;;4.68;89.33
58243;BME280;50118;53.232;8.252;2023-02-04T11:03:15;103643.75;;;4.89;87.40
58243;BME280;50118;53.232;8.252;2023-02-04T11:05:42;103652.00;;;4.75;88.13
58243;BME280;50118;53.232;8.252;2023-02-04T11:08:22;103660.91;;;5.07;88.59
58243;BME280;50118;53.232;8.252;2023-02-04T11:10:50;103655.28;;;4.85;86.63
58243;BME280;50118;53.232;8.252;2023-02-04T11:13:25;103673.38;;;4.64;86.98
58243;BME280;50118;53.232;8.252;2023-02-04T11:18:46;103676.19;;;4.57;89.53
58243;BME280;50118;53.232;8.252;2023-02-04T11:21:46;103673.88;;;4.82;89.05
58243;BME280;50118;53.232;8.252;2023-02-04T11:26:43;103657.84;;;4.88;88.40
58243;BME280;50118;53.232;8.252;2023-02-04T11:32:01;103666.13;;;5.10;87.09
58243;BME280;50118;53.232;8.252;2023-02-04T11:34:30;103659.44;;;4.95;88.02
58243;BME280;50118;53.232;8.252;2023-02-04T11:37:05;103660.84;;;5.10;88.11
58243;BME280;50118;53.232;8.252;2023-02-04T11:44:57;103665.53;;;5.35;87.13
58243;BME280;50118;53.232;8.252;2023-02-04T11:47:24;103660.72;;;5.16;87.89
58243;BME280;50118;53.232;8.252;2023-02-04T11:49:57;103658.19;;;5.45;85.34
58243;BME280;50118;53.232;8.252;2023-02-04T11:52:23;103652.88;;;5.46;82.71
58243;BME280;50118;53.232;8.252;2023-02-04T11:54:58;103656.66;;;5.36;82.88
58243;BME280;50118;53.232;8.252;2023-02-04T11:57:24;103649.56;;;5.38;86.18
58243;BME280;50118;53.232;8.252;2023-02-04T11:59:50;103638.09;;;5.72;84.10
58243;BME280;50118;53.232;8.252;2023-02-04T12:02:23;103642.69;;;5.98;82.37
58243;BME280;50118;53.232;8.252;2023-02-04T12:05:16;103660.41;;;5.94;80.27
58243;BME280;50118;53.232;8.252;2023-02-04T12:07:43;103655.06;;;5.63;79.54
58243;BME280;50118;53.232;8.252;2023-02-04T12:10:22;103663.47;;;5.79;79.68
58243;BME280;50118;53.232;8.252;2023-02-04T12:12:54;103665.72;;;5.93;80.30
58243;BME280;50118;53.232;8.252;2023-02-04T12:15:33;103660.63;;;5.85;78.68
58243;BME280;50118;53.232;8.252;2023-02-04T12:18:02;103660.00;;;5.44;78.63
58243;BME280;50118;53.232;8.252;2023-02-04T12:20:28;103657.69;;;5.65;79.16
58243;BME280;50118;53.232;8.252;2023-02-04T12:22:54;103659.66;;;5.56;79.76
58243;BME280;50118;53.232;8.252;2023-02-04T12:25:19;103659.09;;;5.78;79.04
58243;BME280;50118;53.232;8.252;2023-02-04T12:27:44;103659.06;;;5.47;80.75
58243;BME280;50118;53.232;8.252;2023-02-04T12:30:11;103660.28;;;5.66;81.21
58243;BME280;50118;53.232;8.252;2023-02-04T12:32:36;103652.94;;;5.77;78.50
58243;BME280;50118;53.232;8.252;2023-02-04T12:35:02;103664.22;;;5.84;76.84
58243;BME280;50118;53.232;8.252;2023-02-04T12:37:27;103669.94;;;6.02;77.08
58243;BME280;50118;53.232;8.252;2023-02-04T12:39:53;103666.72;;;5.89;77.72
58243;BME280;50118;53.232;8.252;2023-02-04T12:42:18;103672.72;;;5.63;76.56
58243;BME280;50118;53.232;8.252;2023-02-04T12:44:43;103680.53;;;5.67;77.90
58243;BME280;50118;53.232;8.252;2023-02-04T12:47:09;103675.78;;;5.47;78.11
58243;BME280;50118;53.232;8.252;2023-02-04T12:49:34;103679.47;;;5.74;78.08
58243;BME280;50118;53.232;8.252;2023-02-04T12:52:02;103677.75;;;5.72;77.13
58243;BME280;50118;53.232;8.252;2023-02-04T12:54:27;103665.16;;;5.82;77.37
58243;BME280;50118;53.232;8.252;2023-02-04T12:56:53;103662.00;;;6.02;74.86
58243;BME280;50118;53.232;8.252;2023-02-04T12:59:23;103667.41;;;5.95;74.25
58243;BME280;50118;53.232;8.252;2023-02-04T13:01:49;103674.22;;;5.73;76.33